Time;durP1;ratioP1;P1;durP2;ratioP2;P2;SDS_P1;SDS_P2;PMS_P1;PMS_P2;Temp;Humidity;BMP_temperature;BMP_pressure;BME280_temperature;BME280_humidity;BME280_pressure;Samples;Min_cycle;Max_cycle;Signal;HPM_P1;HPM_P2
2022/10/29 00:00:57;;;;;;;24.15;14.45;;;;;;;13.21;90.91;100679.84;1704727;83;25562;-65
2022/10/29 00:03:26;;;;;;;24.25;14.45;;;;;;;13.18;90.91;100670.43;1708439;83;25558;-65
2022/10/29 00:05:59;;;;;;;22.25;13.18;;;;;;;13.16;90.65;100675.39;1705864;82;27377;-65
2022/10/29 00:08:29;;;;;;;24.07;13.85;;;;;;;13.15;90.49;100673.77;1709249;83;26159;-65
2022/10/29 00:11:11;;;;;;;24.05;12.80;;;;;;;13.13;90.58;100671.94;1689831;83;31521;-65
2022/10/29 00:13:40;;;;;;;20.43;12.60;;;;;;;13.11;90.31;100670.64;1695217;83;25620;-64
2022/10/29 00:16:16;;;;;;;20.47;13.37;;;;;;;13.09;90.30;100668.23;1685705;83;25411;-64
2022/10/29 00:18:44;;;;;;;20.08;12.53;;;;;;;13.06;90.20;100669.69;1689698;83;27470;-64
2022/10/29 00:21:18;;;;;;;23.10;13.35;;;;;;;13.03;90.06;100662.73;1688996;83;25808;-65
2022/10/29 00:23:47;;;;;;;20.60;13.15;;;;;;;13.01;89.95;100660.90;1698339;83;25382;-64
2022/10/29 00:26:15;;;;;;;20.97;12.93;;;;;;;13.00;89.98;100652.50;1683384;83;25516;-64
2022/10/29 00:28:42;;;;;;;21.82;12.70;;;;;;;12.97;90.02;100655.27;1664744;85;25670;-64
2022/10/29 00:31:18;;;;;;;19.95;12.18;;;;;;;12.95;89.87;100645.30;1681455;83;28000;-64
2022/10/29 00:33:46;;;;;;;20.85;12.60;;;;;;;12.92;89.88;100648.63;1663180;85;25523;-65
2022/10/29 00:36:21;;;;;;;18.32;12.00;;;;;;;12.91;89.79;100648.41;1675424;84;25366;-65
2022/10/29 00:38:49;;;;;;;24.60;13.22;;;;;;;12.88;89.78;100639.53;1669009;84;25640;-64
2022/10/29 00:41:20;;;;;;;19.85;12.13;;;;;;;12.87;89.73;100646.06;1677800;84;25583;-64
2022/10/29 00:43:51;;;;;;;25.15;12.93;;;;;;;12.83;89.66;100644.55;1669515;84;27494;-64
2022/10/29 00:46:33;;;;;;;23.57;13.80;;;;;;;12.83;89.65;100639.68;1674570;84;25472;-65
2022/10/29 00:49:02;;;;;;;22.82;12.85;;;;;;;12.79;89.57;100643.59;1674592;84;25518;-64
2022/10/29 00:51:31;;;;;;;19.85;12.88;;;;;;;12.76;89.66;100642.06;1678679;84;25526;-64
2022/10/29 00:54:09;;;;;;;27.60;13.40;;;;;;;12.71;89.48;100646.50;1677440;84;25586;-65
2022/10/29 00:56:47;;;;;;;22.77;12.80;;;;;;;12.68;89.53;100641.73;1687407;84;27369;-65
2022/10/29 00:59:16;;;;;;;22.62;13.05;;;;;;;12.67;89.54;100640.69;1668929;84;25375;-64
2022/10/29 01:01:46;;;;;;;23.02;13.03;;;;;;;12.64;89.63;100642.66;1674663;84;25358;-65
2022/10/29 01:04:13;;;;;;;22.77;13.70;;;;;;;12.61;89.62;100633.78;1668934;84;25534;-65
2022/10/29 01:06:42;;;;;;;25.68;13.05;;;;;;;12.57;89.67;100633.62;1666250;84;25652;-64
2022/10/29 01:09:09;;;;;;;25.45;12.60;;;;;;;12.55;89.61;100625.00;1682265;84;28153;-65
2022/10/29 01:12:16;;;;;;;21.90;11.93;;;;;;;12.52;89.58;100618.27;1666702;84;26133;-65
2022/10/29 01:14:57;;;;;;;22.62;12.65;;;;;;;12.48;89.45;100617.31;1666859;85;25332;-69
2022/10/29 01:17:36;;;;;;;23.12;12.78;;;;;;;12.45;89.47;100614.42;1677845;83;26064;-65
2022/10/29 01:20:28;;;;;;;20.15;13.10;;;;;;;12.44;89.58;100620.95;1669566;84;25367;-65
2022/10/29 01:23:38;;;;;;;22.25;12.95;;;;;;;12.40;89.56;100619.99;1671126;84;27434;-64
2022/10/29 01:26:35;;;;;;;20.08;12.90;;;;;;;12.35;89.62;100614.14;1678313;84;27415;-64
2022/10/29 01:29:49;;;;;;;23.75;11.65;;;;;;;12.30;89.53;100621.06;1666843;84;25574;-64
2022/10/29 01:32:31;;;;;;;19.92;11.80;;;;;;;12.25;89.54;100627.41;1677621;84;25650;-65
2022/10/29 01:35:13;;;;;;;20.97;11.85;;;;;;;12.22;89.65;100628.03;1678798;84;25594;-64
2022/10/29 01:38:06;;;;;;;25.15;14.13;;;;;;;12.18;89.75;100626.27;1679523;84;27413;-64
2022/10/29 01:41:13;;;;;;;20.90;12.45;;;;;;;12.15;89.90;100628.47;1672576;84;25626;-64
2022/10/29 01:43:48;;;;;;;22.45;13.32;;;;;;;12.13;89.89;100627.98;1673129;84;25624;-64
2022/10/29 01:46:30;;;;;;;24.37;12.18;;;;;;;12.10;89.91;100625.10;1679850;84;25581;-64
2022/10/29 01:49:01;;;;;;;18.67;12.18;;;;;;;12.09;89.92;100628.95;1682084;84;25581;-64
2022/10/29 01:51:33;;;;;;;23.62;12.23;;;;;;;12.05;89.95;100621.17;1683568;84;27343;-64
2022/10/29 01:54:05;;;;;;;20.27;11.60;;;;;;;12.02;89.86;100621.25;1676871;84;25848;-64
2022/10/29 01:56:32;;;;;;;24.15;11.85;;;;;;;12.00;89.87;100616.67;1673034;84;25560;-63
2022/10/29 01:59:04;;;;;;;21.45;12.60;;;;;;;11.99;89.90;100616.44;1681068;84;26421;-63
2022/10/29 02:01:42;;;;;;;18.67;11.60;;;;;;;11.96;89.96;100616.49;1689703;84;25547;-63
2022/10/29 02:04:33;;;;;;;28.55;11.30;;;;;;;11.93;89.85;100613.04;1673766;84;27488;-64
2022/10/29 02:07:36;;;;;;;18.80;11.65;;;;;;;11.91;89.86;100614.48;1681927;83;25414;-65
2022/10/29 02:10:17;;;;;;;21.65;11.63;;;;;;;11.90;89.84;100616.90;1658113;85;25372;-63
2022/10/29 02:12:53;;;;;;;18.82;11.65;;;;;;;11.87;89.81;100609.41;1663732;86;26198;-64
2022/10/29 02:15:35;;;;;;;21.20;11.65;;;;;;;11.83;89.84;100607.05;1640938;86;25713;-64
2022/10/29 02:18:06;;;;;;;19.77;11.93;;;;;;;11.80;89.93;100604.95;1672497;83;27492;-63
2022/10/29 02:20:35;;;;;;;18.45;11.43;;;;;;;11.77;90.00;100602.33;1630965;84;25600;-63
2022/10/29 02:23:02;;;;;;;22.93;11.95;;;;;;;11.75;89.87;100601.84;1596289;89;25422;-64
2022/10/29 02:25:29;;;;;;;18.45;11.43;;;;;;;11.70;89.87;100595.98;1610770;88;25675;-64
2022/10/29 02:27:56;;;;;;;17.75;10.45;;;;;;;11.67;90.02;100598.52;1629199;88;25530;-64
2022/10/29 02:30:24;;;;;;;21.10;12.03;;;;;;;11.63;89.96;100598.34;1658321;86;29729;-64
2022/10/29 02:32:51;;;;;;;23.40;11.57;;;;;;;11.60;90.30;100590.81;1629699;86;25630;-64
2022/10/29 02:35:18;;;;;;;19.12;11.12;;;;;;;11.57;90.20;100591.42;1641807;87;25464;-64
2022/10/29 02:37:45;;;;;;;18.50;11.40;;;;;;;11.54;90.41;100584.73;1641274;87;25577;-64
2022/10/29 02:40:13;;;;;;;20.30;11.60;;;;;;;11.52;90.14;100578.00;1641320;87;25636;-64
2022/10/29 02:42:41;;;;;;;20.65;11.68;;;;;;;11.49;90.25;100575.38;1690933;84;27340;-64
2022/10/29 02:45:09;;;;;;;23.85;12.28;;;;;;;11.45;90.42;100561.39;1691312;84;25365;-64
2022/10/29 02:47:36;;;;;;;20.70;11.47;;;;;;;11.44;90.33;100560.60;1691725;84;25558;-64
2022/10/29 02:50:06;;;;;;;18.42;11.33;;;;;;;11.42;90.42;100562.00;1691229;84;25543;-64
2022/10/29 02:52:33;;;;;;;;;;;;;;;11.40;90.40;100547.41;1694135;84;25425;-64
2022/10/29 02:55:00;;;;;;;21.07;11.10;;;;;;;11.39;90.58;100552.03;1691231;84;27443;-65
2022/10/29 02:57:27;;;;;;;22.17;11.80;;;;;;;11.35;90.59;100549.68;1691531;84;25533;-64
2022/10/29 02:59:54;;;;;;;20.95;11.33;;;;;;;11.34;90.66;100546.74;1691179;84;25393;-65
2022/10/29 03:02:21;;;;;;;17.15;12.33;;;;;;;11.31;90.77;100546.00;1689265;84;27793;-65
2022/10/29 03:04:48;;;;;;;18.10;11.25;;;;;;;11.30;90.75;100551.72;1673607;84;25527;-65
2022/10/29 03:07:15;;;;;;;19.90;11.33;;;;;;;11.29;90.82;100548.22;1678552;84;27365;-65
2022/10/29 03:09:42;;;;;;;21.57;11.45;;;;;;;11.28;90.90;100551.23;1681885;84;25906;-65
2022/10/29 03:12:09;;;;;;;19.52;10.75;;;;;;;11.26;90.86;100546.13;1691834;84;25327;-65
2022/10/29 03:14:36;;;;;;;20.88;12.25;;;;;;;11.25;90.86;100543.16;1691864;84;25575;-65
2022/10/29 03:17:04;;;;;;;22.00;12.65;;;;;;;11.25;90.88;100543.16;1691904;84;25576;-65
2022/10/29 03:19:32;;;;;;;16.62;10.43;;;;;;;11.24;90.86;100538.86;1689812;83;28312;-64
2022/10/29 03:21:59;;;;;;;18.32;11.00;;;;;;;11.21;90.87;100534.84;1669392;85;27481;-64
2022/10/29 03:24:26;;;;;;;20.35;11.60;;;;;;;11.20;90.97;100533.27;1661957;86;25326;-64
2022/10/29 03:26:54;;;;;;;19.77;11.28;;;;;;;11.17;91.03;100532.52;1657128;86;25646;-65
2022/10/29 03:29:21;;;;;;;18.10;11.45;;;;;;;11.17;91.27;100528.45;1657514;86;25266;-65
2022/10/29 03:31:48;;;;;;;20.92;11.73;;;;;;;11.16;91.19;100520.08;1647651;86;27348;-65
2022/10/29 03:34:15;;;;;;;21.10;12.50;;;;;;;11.16;91.39;100515.23;1658607;86;25358;-65
2022/10/29 03:36:42;;;;;;;16.52;10.95;;;;;;;11.17;91.37;100517.63;1661928;86;25471;-64
2022/10/29 03:39:09;;;;;;;20.70;12.13;;;;;;;11.16;91.32;100517.38;1661608;86;25659;-65
2022/10/29 03:41:37;;;;;;;21.55;11.08;;;;;;;11.16;91.38;100506.55;1661083;86;25485;-65
2022/10/29 03:44:04;;;;;;;21.75;11.57;;;;;;;11.17;91.43;100510.86;1657895;86;27375;-65
2022/10/29 03:46:31;;;;;;;25.68;11.60;;;;;;;11.18;91.40;100507.59;1664255;86;25532;-65
2022/10/29 03:48:58;;;;;;;24.80;11.93;;;;;;;11.18;91.45;100517.06;1664490;85;25560;-65
2022/10/29 03:51:26;;;;;;;17.17;11.48;;;;;;;11.19;91.44;100522.17;1630475;86;25642;-65
2022/10/29 03:53:53;;;;;;;22.67;11.08;;;;;;;11.20;91.40;100514.31;1656978;85;25545;-65
2022/10/29 03:56:20;;;;;;;24.47;12.20;;;;;;;11.21;91.34;100516.45;1650283;86;27296;-65
2022/10/29 03:58:47;;;;;;;20.85;12.47;;;;;;;11.21;91.43;100513.75;1664773;86;25573;-65
2022/10/29 04:01:14;;;;;;;25.25;11.85;;;;;;;11.23;91.40;100517.51;1656192;85;25590;-65
2022/10/29 04:03:42;;;;;;;24.23;11.10;;;;;;;11.23;91.30;100510.73;1661182;86;25542;-65
2022/10/29 04:06:13;;;;;;;21.17;10.93;;;;;;;11.24;91.26;100517.20;1650867;84;25371;-65
2022/10/29 04:08:42;;;;;;;17.95;11.15;;;;;;;11.24;91.24;100521.80;1651169;85;28196;-65
2022/10/29 04:11:13;;;;;;;87.35;80.87;;;;;;;11.25;91.20;100529.61;1660971;85;25547;-65
2022/10/29 04:13:40;;;;;;;86.12;79.85;;;;;;;11.25;91.22;100532.32;1655222;85;25413;-65
2022/10/29 04:16:07;;;;;;;84.65;78.50;;;;;;;11.24;91.14;100529.39;1656932;85;25654;-65
2022/10/29 04:18:35;;;;;;;84.03;77.55;;;;;;;11.25;91.13;100526.91;1660045;85;25501;-65
2022/10/29 04:21:03;;;;;;;83.80;77.03;;;;;;;11.25;91.06;100526.12;1622331;86;27438;-65
2022/10/29 04:23:31;;;;;;;17.77;10.58;;;;;;;11.24;91.06;100528.03;1631604;86;25505;-65
2022/10/29 04:25:59;;;;;;;16.65;10.72;;;;;;;11.29;90.88;100533.33;1634308;85;25394;-65
2022/10/29 04:28:26;;;;;;;16.07;10.72;;;;;;;11.29;90.88;100527.09;1689139;84;26061;-65
2022/10/29 04:30:54;;;;;;;18.15;11.10;;;;;;;11.30;90.85;100524.64;1669431;84;25574;-65
2022/10/29 04:33:21;;;;;;;18.80;10.48;;;;;;;11.28;90.85;100515.47;1678617;84;27919;-65
2022/10/29 04:35:53;;;;;;;19.07;11.48;;;;;;;11.29;90.78;100510.31;1663885;83;25340;-65
2022/10/29 04:38:21;;;;;;;19.30;10.68;;;;;;;11.28;90.79;100509.27;1630879;86;25638;-65
2022/10/29 04:40:49;;;;;;;21.30;10.78;;;;;;;11.28;90.81;100505.98;1674152;84;25675;-65
2022/10/29 04:43:17;;;;;;;87.67;80.97;;;;;;;11.28;90.78;100502.49;1631873;86;25655;-65
2022/10/29 04:45:51;;;;;;;87.78;81.45;;;;;;;11.27;90.77;100506.30;1669671;84;27400;-65
2022/10/29 04:48:19;;;;;;;86.08;79.50;;;;;;;11.27;90.74;100509.00;1634226;86;25619;-65
2022/10/29 04:50:47;;;;;;;85.97;79.32;;;;;;;11.27;90.75;100513.88;1671814;83;25546;-65
2022/10/29 04:53:16;;;;;;;86.12;79.65;;;;;;;11.29;90.73;100502.19;1680850;84;25518;-65
2022/10/29 04:55:45;;;;;;;83.77;77.60;;;;;;;11.28;90.63;100507.34;1668421;84;25419;-64
2022/10/29 04:58:16;;;;;;;84.65;78.12;;;;;;;11.31;90.63;100504.59;1618914;87;28009;-63
2022/10/29 05:00:44;;;;;;;80.30;74.32;;;;;;;11.32;90.63;100515.11;1629448;86;25673;-64
2022/10/29 05:03:12;;;;;;;14.80;10.00;;;;;;;11.35;90.53;100509.62;1642189;86;25615;-64
2022/10/29 05:05:40;;;;;;;18.77;10.82;;;;;;;11.39;90.48;100517.36;1610680;86;26333;-64
2022/10/29 05:08:10;;;;;;;18.07;13.55;;;;;;;11.39;90.44;100510.59;1650856;85;25632;-65
2022/10/29 05:10:39;;;;;;;86.60;79.85;;;;;;;11.40;90.38;100510.84;1641503;85;27398;-65
2022/10/29 05:13:10;;;;;;;87.47;81.00;;;;;;;11.40;90.33;100509.49;1641151;86;25556;-65
2022/10/29 05:15:39;;;;;;;86.63;80.42;;;;;;;11.39;90.28;100511.41;1657429;86;25588;-64
2022/10/29 05:18:06;;;;;;;84.92;78.40;;;;;;;11.40;90.27;100509.49;1647709;85;25623;-64
2022/10/29 05:20:35;;;;;;;18.45;10.30;;;;;;;11.40;90.26;100517.05;1646212;83;25513;-64
2022/10/29 05:23:06;;;;;;;29.30;26.25;;;;;;;11.44;90.16;100514.56;1662495;85;27362;-64
2022/10/29 05:25:36;;;;;;;56.23;51.70;;;;;;;11.45;90.12;100526.97;1658587;86;25536;-64
2022/10/29 05:28:13;;;;;;;87.92;81.17;;;;;;;11.47;90.07;100527.45;1667129;85;25383;-63
2022/10/29 05:30:42;;;;;;;22.22;11.53;;;;;;;11.48;89.94;100529.63;1671331;84;27749;-64
2022/10/29 05:33:13;;;;;;;15.55;9.13;;;;;;;11.52;89.89;100540.08;1671660;84;25359;-64
2022/10/29 05:35:40;;;;;;;18.65;9.73;;;;;;;11.53;89.87;100543.84;1671341;84;27374;-65
2022/10/29 05:38:09;;;;;;;23.25;20.77;;;;;;;11.53;89.73;100539.77;1671339;84;25693;-64
2022/10/29 05:40:37;;;;;;;88.65;81.87;;;;;;;11.54;89.75;100552.22;1671483;85;25575;-63
2022/10/29 05:43:05;;;;;;;86.10;79.37;;;;;;;11.55;89.71;100550.30;1671427;85;25554;-63
2022/10/29 05:45:32;;;;;;;85.62;79.05;;;;;;;11.58;89.74;100552.41;1671274;85;25512;-63
2022/10/29 05:48:02;;;;;;;17.30;9.90;;;;;;;11.58;89.74;100549.13;1671425;85;28056;-63
2022/10/29 05:50:32;;;;;;;28.55;25.75;;;;;;;11.63;89.65;100550.92;1644471;85;25583;-63
2022/10/29 05:53:04;;;;;;;24.87;9.38;;;;;;;11.67;89.56;100547.03;1652319;86;25650;-63
2022/10/29 05:55:33;;;;;;;63.68;58.80;;;;;;;11.68;89.49;100543.20;1639489;86;25714;-63
2022/10/29 05:58:04;;;;;;;84.65;78.62;;;;;;;11.71;89.54;100546.11;1640578;86;25550;-63
2022/10/29 06:00:35;;;;;;;23.95;21.07;;;;;;;11.74;89.47;100550.89;1647926;86;27359;-65
2022/10/29 06:03:03;;;;;;;85.47;78.90;;;;;;;11.77;89.49;100549.48;1648013;86;25549;-64
2022/10/29 06:05:32;;;;;;;86.17;79.58;;;;;;;11.80;89.38;100539.38;1628713;86;29909;-65
2022/10/29 06:07:59;;;;;;;82.85;76.60;;;;;;;11.84;89.29;100540.34;1621771;87;25744;-65
2022/10/29 06:10:28;;;;;;;15.08;9.50;;;;;;;11.88;89.28;100533.74;1623059;85;25544;-65
2022/10/29 06:12:56;;;;;;;17.40;12.73;;;;;;;11.93;89.17;100536.35;1648644;87;27890;-65
2022/10/29 06:15:23;;;;;;;17.62;14.03;;;;;;;11.96;89.09;100532.45;1648362;85;25356;-65
2022/10/29 06:17:50;;;;;;;86.20;79.37;;;;;;;12.00;88.94;100534.55;1622027;87;25592;-65
2022/10/29 06:20:20;;;;;;;81.67;75.95;;;;;;;12.02;88.99;100530.96;1644559;85;25548;-65
2022/10/29 06:22:55;;;;;;;44.40;40.35;;;;;;;12.04;88.96;100533.62;1677170;85;25535;-64
2022/10/29 06:25:23;;;;;;;84.58;77.45;;;;;;;12.08;88.76;100535.14;1676503;85;27438;-64
2022/10/29 06:28:08;;;;;;;13.70;8.78;;;;;;;12.12;88.76;100535.57;1664392;85;25567;-64
2022/10/29 06:30:36;;;;;;;10.90;10.30;;;;;;;12.14;88.75;100531.98;1663851;85;25576;-65
2022/10/29 06:33:04;;;;;;;10.80;10.20;;;;;;;;;;1671733;85;27615;-64
2022/10/29 06:35:31;;;;;;;11.20;10.60;;;;;;;;;;1685758;85;25634;-65
2022/10/29 06:37:59;;;;;;;11.13;10.50;;;;;;;;;;1671062;85;27402;-64
2022/10/29 06:40:25;;;;;;;13.03;12.30;;;;;;;;;;1660768;85;25469;-64
2022/10/29 06:43:00;;;;;;;12.00;11.37;;;;;;;;;;1668112;84;25632;-65
2022/10/29 06:45:28;;;;;;;11.73;11.13;;;;;;;;;;1677488;85;25433;-65
2022/10/29 06:47:55;;;;;;;12.95;12.25;;;;;;;;;;1658344;85;25639;-65
2022/10/29 06:50:24;;;;;;;9.28;8.88;;;;;;;;;;1658144;85;27431;-64
2022/10/29 06:53:00;;;;;;;11.83;11.22;;;;;;;;;;1666215;85;25805;-64
2022/10/29 06:55:29;;;;;;;16.77;15.77;;;;;;;;;;1660697;85;25553;-64
2022/10/29 06:58:01;;;;;;;11.97;11.33;;;;;;;;;;1666833;85;25542;-64
2022/10/29 07:00:30;;;;;;;11.18;10.65;;;;;;;;;;1658366;85;25485;-64
2022/10/29 07:03:03;;;;;;;12.33;11.78;;;;;;;;;;1658382;85;27479;-64
2022/10/29 07:05:31;;;;;;;12.73;12.23;;;;;;;;;;1655192;84;138341;-64
2022/10/29 07:08:00;;;;;;;4.90;4.70;;;;;;;;;;1692190;84;25667;-64
2022/10/29 07:10:30;;;;;;;3.30;3.17;;;;;;;;;;1730058;82;25634;-64
2022/10/29 07:12:56;;;;;;;23.73;22.73;;;;;;;;;;1731030;82;25470;-64
2022/10/29 08:26:20;;;;;;;13.83;6.92;;;;;;;21.57;62.65;100548.84;1830486;76;27915;-66
2022/10/29 08:28:46;;;;;;;14.40;6.55;;;;;;;21.55;64.50;100536.05;1809054;77;25794;-70
2022/10/29 08:31:13;;;;;;;17.67;7.85;;;;;;;21.73;62.73;100532.88;1782471;79;29651;-70
2022/10/29 08:33:39;;;;;;;12.03;6.78;;;;;;;21.69;62.17;100525.75;1809213;79;25604;-72
2022/10/29 08:36:06;;;;;;;77.27;71.92;;;;;;;21.75;63.12;100525.63;1798064;77;25708;-71
2022/10/29 08:38:32;;;;;;;79.25;73.92;;;;;;;21.64;62.48;100519.44;1794108;77;26384;-71
2022/10/29 08:41:16;;;;;;;76.25;70.42;;;;;;;21.57;61.64;100522.13;1757242;79;25462;-71
2022/10/29 08:44:08;;;;;;;13.10;7.20;;;;;;;21.44;61.42;100532.57;1797849;78;27578;-71
2022/10/29 08:46:49;;;;;;;15.58;6.83;;;;;;;21.36;62.26;100544.66;1811986;77;25731;-72
2022/10/29 08:49:37;;;;;;;16.17;7.17;;;;;;;21.26;60.91;100533.73;1798113;79;25601;-67
2022/10/29 08:52:18;;;;;;;39.85;36.45;;;;;;;21.15;62.02;100532.06;1791428;78;26873;-65
2022/10/29 08:54:59;;;;;;;77.95;72.62;;;;;;;21.16;62.27;100533.03;1795879;77;25451;-67
2022/10/29 08:57:29;;;;;;;19.07;7.25;;;;;;;21.08;61.68;100536.89;1746788;81;27528;-67
2022/10/29 09:00:06;;;;;;;12.88;7.05;;;;;;;21.15;62.59;100538.34;1720178;81;26222;-68
2022/10/29 09:02:32;;;;;;;15.83;7.20;;;;;;;21.33;62.39;100539.91;1728005;81;25803;-74
2022/10/29 09:05:00;;;;;;;16.45;7.53;;;;;;;21.73;64.17;100534.26;1735936;81;25942;-74
2022/10/29 09:07:44;;;;;;;48.90;45.17;;;;;;;22.40;64.43;100535.80;1682981;81;32979;-73
2022/10/29 09:10:35;;;;;;;76.75;71.05;;;;;;;22.82;62.05;100543.52;1661307;83;28295;-75
2022/10/29 09:13:36;;;;;;;13.30;7.92;;;;;;;23.05;61.00;100542.42;1669033;83;25779;-69
2022/10/29 09:16:48;;;;;;;20.40;7.37;;;;;;;23.22;60.37;100538.18;1677891;83;25583;-74
2022/10/29 09:20:08;;;;;;;13.58;8.93;;;;;;;23.07;58.69;100551.94;1690410;83;25820;-75
2022/10/29 09:23:03;;;;;;;12.15;11.55;;;;;;;22.46;57.88;100537.81;1694267;83;25719;-76
2022/10/29 09:25:34;;;;;;;8.28;7.97;;;;;;;;;;1648630;83;27400;-76
2022/10/29 11:15:56;;;;;;;31.25;14.68;;;;;;;18.97;72.11;100571.39;1832778;76;25545;-66
2022/10/29 11:19:05;;;;;;;29.02;13.62;;;;;;;19.04;71.52;100564.69;1791455;78;25894;-67
2022/10/29 11:21:52;;;;;;;26.95;13.25;;;;;;;19.31;71.05;100557.20;1790843;78;27676;-67
2022/10/29 11:24:47;;;;;;;25.68;12.70;;;;;;;19.57;71.49;100563.37;1818502;78;25598;-67
2022/10/29 11:27:46;;;;;;;25.02;12.13;;;;;;;19.70;70.06;100566.72;1795045;77;25714;-66
2022/10/29 11:30:16;;;;;;;25.97;11.85;;;;;;;19.55;69.04;100567.06;1806763;78;34652;-69
2022/10/29 11:33:06;;;;;;;19.37;11.12;;;;;;;19.32;68.60;100567.78;1819783;78;25656;-68
2022/10/29 11:35:46;;;;;;;23.85;12.18;;;;;;;19.10;68.26;100565.77;1791154;78;27037;-67
2022/10/29 11:38:24;;;;;;;22.60;11.20;;;;;;;18.85;68.64;100574.27;1801074;78;25584;-68
2022/10/29 11:41:30;;;;;;;17.92;11.20;;;;;;;18.66;69.26;100577.71;1803021;78;25681;-69
2022/10/29 11:43:57;;;;;;;31.70;14.70;;;;;;;18.49;69.50;100572.07;1786939;78;27384;-71
2022/10/29 11:46:47;;;;;;;20.43;11.28;;;;;;;18.33;69.90;100589.08;1795348;78;25421;-68
2022/10/29 11:49:27;;;;;;;25.55;11.03;;;;;;;18.23;70.09;100591.77;1746940;81;27703;-67
2022/10/29 11:52:14;;;;;;;21.05;11.08;;;;;;;18.13;70.30;100588.98;1761615;81;26271;-68
2022/10/29 11:55:37;;;;;;;21.77;11.05;;;;;;;18.01;70.47;100592.59;1709121;83;25711;-68
2022/10/29 11:58:25;;;;;;;18.15;9.88;;;;;;;17.94;70.85;100586.95;1713103;83;25726;-68
2022/10/29 12:01:24;;;;;;;17.92;9.85;;;;;;;17.85;71.13;100587.66;1713411;83;25689;-67
2022/10/29 12:04:04;;;;;;;20.08;11.05;;;;;;;17.77;71.32;100578.46;1703640;83;27495;-68
2022/10/29 12:06:54;;;;;;;22.65;10.93;;;;;;;17.67;71.42;100588.55;1706181;83;25867;-68
2022/10/29 12:09:34;;;;;;;21.40;11.03;;;;;;;17.61;71.83;100582.55;1625202;87;25711;-68
2022/10/29 12:12:34;;;;;;;21.75;10.45;;;;;;;17.58;71.95;100586.55;1662306;86;25707;-68
2022/10/29 12:15:24;;;;;;;19.32;9.40;;;;;;;17.56;72.38;100575.96;1613861;87;25647;-68
2022/10/29 12:18:25;;;;;;;21.23;9.95;;;;;;;17.60;72.87;100583.68;1637993;87;27557;-68
2022/10/29 12:21:14;;;;;;;20.77;10.40;;;;;;;17.65;72.92;100570.33;1662521;86;25691;-67
2022/10/29 12:23:55;;;;;;;20.80;10.23;;;;;;;17.68;73.21;100571.00;1674725;84;25658;-68
2022/10/29 12:26:39;;;;;;;21.90;9.35;;;;;;;17.69;72.80;100566.55;1660887;82;28775;-67
2022/10/29 12:29:34;;;;;;;22.20;10.15;;;;;;;17.73;73.15;100572.11;1647531;86;25489;-68
2022/10/29 12:32:12;;;;;;;25.57;9.40;;;;;;;17.74;72.88;100562.74;1661304;84;27492;-67
2022/10/29 12:35:02;;;;;;;16.23;9.60;;;;;;;17.78;72.96;100560.91;1672956;85;25724;-67
2022/10/29 12:37:39;;;;;;;19.73;9.98;;;;;;;17.81;73.11;100568.42;1667290;86;25466;-67
2022/10/29 12:40:27;;;;;;;21.75;10.25;;;;;;;17.84;73.12;100569.65;1618420;87;25729;-67
2022/10/29 12:42:58;;;;;;;16.42;9.55;;;;;;;17.81;72.99;100562.95;1611832;87;25730;-68
2022/10/29 12:45:49;;;;;;;17.70;9.78;;;;;;;17.79;72.79;100570.69;1612927;87;27490;-68
2022/10/29 12:48:27;;;;;;;16.87;9.65;;;;;;;17.75;72.84;100576.66;1616895;87;26392;-68
2022/10/29 12:51:25;;;;;;;21.55;10.98;;;;;;;17.74;72.92;100569.58;1607606;87;25550;-67
2022/10/29 12:54:25;;;;;;;21.68;9.80;;;;;;;17.77;72.97;100572.20;1651959;85;25815;-68
2022/10/29 12:56:52;;;;;;;22.73;10.25;;;;;;;17.80;73.23;100576.40;1589185;89;25717;-66
2022/10/29 12:59:29;;;;;;;16.27;10.00;;;;;;;17.92;74.15;100579.67;1588274;89;27489;-68
2022/10/29 13:02:26;;;;;;;20.17;9.30;;;;;;;18.05;73.33;100565.34;1594383;89;25761;-68
2022/10/29 13:05:12;;;;;;;15.23;8.35;;;;;;;18.15;72.70;100570.84;1583842;89;25550;-68
2022/10/29 13:07:52;;;;;;;18.52;7.53;;;;;;;18.27;72.34;100566.08;1590995;89;26131;-68
2022/10/29 13:10:30;;;;;;;14.65;8.43;;;;;;;18.31;71.48;100554.42;1603188;89;25699;-68
2022/10/29 13:13:16;;;;;;;12.90;9.08;;;;;;;18.26;70.82;100559.59;1562338;91;28190;-68
2022/10/29 13:15:50;;;;;;;80.50;74.85;;;;;;;18.21;70.79;100562.01;1598523;89;25771;-67
2022/10/29 13:18:45;;;;;;;77.08;71.12;;;;;;;18.16;70.54;100576.55;1575969;89;25619;-68
2022/10/29 13:21:12;;;;;;;77.80;72.55;;;;;;;18.09;70.44;100564.27;1562557;90;25622;-68
2022/10/29 13:23:38;;;;;;;77.58;72.25;;;;;;;18.02;70.61;100559.98;1562475;90;25703;-67
2022/10/29 13:26:08;;;;;;;74.75;69.72;;;;;;;18.05;70.33;100563.97;1573892;87;31385;-67
2022/10/29 13:28:42;;;;;;;78.35;72.78;;;;;;;18.11;70.72;100569.39;1584056;88;25774;-67
2022/10/29 13:31:19;;;;;;;74.58;69.17;;;;;;;18.19;70.87;100565.68;1586976;88;25831;-68
2022/10/29 13:33:48;;;;;;;75.92;70.80;;;;;;;17.98;70.51;100517.25;1643299;84;25893;-68
2022/10/29 13:36:20;;;;;;;73.42;68.33;;;;;;;18.25;70.40;100567.02;1701901;83;32704;-68
2022/10/29 13:38:59;;;;;;;74.50;69.07;;;;;;;17.36;70.20;100416.45;1701691;83;27482;-66
2022/10/29 13:41:41;;;;;;;;;;;;;;;;;;1704244;82;27313;-67
2022/10/29 13:44:13;;;;;;;14.47;7.22;;;;;;;;;;1701652;83;25632;-68
2022/10/29 13:46:51;;;;;;;19.52;7.50;;;;;;;;;;1701751;83;26177;-68
2022/10/29 13:49:25;;;;;;;14.20;7.92;;;;;;;;;;1702608;83;25630;-67
2022/10/29 13:51:58;;;;;;;14.07;7.10;;;;;;;;;;1689392;82;27393;-67
2022/10/29 13:54:49;;;;;;;70.03;65.20;;;;;;;;;;1689915;83;25569;-67
2022/10/29 13:57:32;;;;;;;79.12;73.83;;;;;;;;;;1689692;83;25614;-67
2022/10/29 14:00:16;;;;;;;78.95;73.07;;;;;;;;;;1643497;85;25600;-67
2022/10/29 14:02:49;;;;;;;77.70;72.58;;;;;;;;;;1641286;85;25663;-68
2022/10/29 14:05:34;;;;;;;79.17;73.78;;;;;;;;;;1641581;85;28050;-67
2022/10/29 14:08:16;;;;;;;77.70;72.65;;;;;;;;;;1633514;85;25870;-68
2022/10/29 14:10:48;;;;;;;79.17;73.83;;;;;;;;;;1611405;88;25613;-67
2022/10/29 14:13:30;;;;;;;78.62;73.52;;;;;;;;;;1615895;88;25644;-67
2022/10/29 14:16:09;;;;;;;76.42;70.97;;;;;;;;;;1612341;88;25635;-67
2022/10/29 14:18:41;;;;;;;79.20;73.95;;;;;;;;;;1615697;87;27456;-67
2022/10/29 14:21:25;;;;;;;76.87;71.95;;;;;;;;;;1615937;88;25366;-67
2022/10/29 14:23:58;;;;;;;82.20;76.22;;;;;;;;;;1610621;87;25589;-66
2022/10/29 14:26:27;;;;;;;79.03;73.37;;;;;;;;;;1621834;84;25688;-64
2022/10/29 14:28:55;;;;;;;75.25;69.80;;;;;;;;;;1580476;89;25472;-66
2022/10/29 14:31:24;;;;;;;76.53;71.12;;;;;;;;;;1589695;89;27385;-66
2022/10/29 14:33:57;;;;;;;75.08;69.92;;;;;;;;;;1611998;88;25421;-65
2022/10/29 14:36:43;;;;;;;76.60;71.10;;;;;;;;;;1611177;86;25499;-66
2022/10/29 14:41:37;;;;;;;15.93;7.55;;;;;;;16.86;69.60;100585.30;1889590;74;27339;-66
2022/10/29 14:44:19;;;;;;;13.48;7.20;;;;;;;16.73;69.66;100575.50;1838637;77;25417;-67
2022/10/29 14:47:09;;;;;;;13.75;7.53;;;;;;;16.67;69.77;100587.23;1836060;77;27458;-65
2022/10/29 14:49:46;;;;;;;11.30;6.45;;;;;;;16.57;69.94;100584.39;1858738;77;27353;-66
2022/10/29 14:52:36;;;;;;;12.23;8.15;;;;;;;16.50;70.05;100580.63;1852332;76;25533;-66
2022/10/29 14:55:16;;;;;;;14.23;7.05;;;;;;;16.42;70.23;100575.53;1843997;77;25598;-66
2022/10/29 14:57:51;;;;;;;14.93;7.35;;;;;;;16.35;70.36;100579.40;1850694;77;25530;-66
2022/10/29 15:00:30;;;;;;;11.65;7.30;;;;;;;16.28;70.43;100586.78;1844278;77;27244;-67
2022/10/29 15:02:57;;;;;;;13.18;7.67;;;;;;;16.22;70.67;100590.28;1851258;77;25331;-67
2022/10/29 15:05:48;;;;;;;14.03;7.53;;;;;;;16.13;70.81;100583.36;1859547;77;25679;-67
2022/10/29 15:08:20;;;;;;;9.55;7.15;;;;;;;16.05;70.98;100595.38;1712518;83;25614;-66
2022/10/29 15:10:53;;;;;;;14.15;7.55;;;;;;;15.99;71.28;100595.39;1696639;83;25773;-66
2022/10/29 15:13:33;;;;;;;14.38;8.43;;;;;;;15.93;71.34;100598.09;1698905;83;27464;-68